Time;durP1;ratioP1;P1;durP2;ratioP2;P2;SDS_P1;SDS_P2;PMS_P1;PMS_P2;Temp;Humidity;BMP_temperature;BMP_pressure;BME280_temperature;BME280_humidity;BME280_pressure;Samples;Min_cycle;Max_cycle;Signal;HPM_P1;HPM_P2
2022/09/04 00:02:38;;;;;;;3.47;1.98;;;;;;;17.79;100.00;100041.75;5032783;28;20372;-65
2022/09/04 00:05:31;;;;;;;3.53;1.90;;;;;;;17.77;100.00;100039.16;5039792;28;20472;-66
2022/09/04 00:08:10;;;;;;;4.27;2.20;;;;;;;17.73;100.00;100034.91;5053467;28;20040;-66
2022/09/04 00:10:44;;;;;;;5.05;2.60;;;;;;;17.71;100.00;100044.03;5053078;28;20094;-65
2022/09/04 00:13:18;;;;;;;5.38;2.08;;;;;;;17.60;100.00;100031.22;5052451;28;20065;-65
2022/09/04 00:15:50;;;;;;;8.75;2.30;;;;;;;17.55;100.00;100038.72;5052841;28;20039;-66
2022/09/04 00:18:25;;;;;;;5.40;2.90;;;;;;;17.53;100.00;100048.69;5052594;28;20024;-66
2022/09/04 00:21:08;;;;;;;4.32;2.25;;;;;;;17.54;100.00;100047.75;5052328;28;20306;-66
2022/09/04 00:23:50;;;;;;;5.22;2.03;;;;;;;17.46;100.00;100047.31;5052539;28;20049;-66
2022/09/04 00:26:41;;;;;;;5.28;2.00;;;;;;;17.48;100.00;100047.25;5053133;28;20082;-66
2022/09/04 00:29:47;;;;;;;4.25;2.40;;;;;;;17.50;100.00;100056.94;5052807;28;20152;-66
2022/09/04 00:32:22;;;;;;;5.22;2.10;;;;;;;17.52;100.00;100060.41;5013160;28;20121;-66
2022/09/04 00:35:06;;;;;;;6.10;2.67;;;;;;;17.52;100.00;100065.78;5013402;28;20508;-66
2022/09/04 00:38:00;;;;;;;;;;;;;;;17.50;100.00;100064.13;5013152;28;20037;-65
2022/09/04 00:40:29;;;;;;;4.78;2.83;;;;;;;17.45;100.00;100067.13;4997692;28;20360;-66
2022/09/04 00:43:05;;;;;;;4.50;2.15;;;;;;;17.42;100.00;100061.88;4992634;28;20042;-66
2022/09/04 00:45:49;;;;;;;5.82;2.08;;;;;;;17.31;100.00;100064.34;4992660;28;20032;-66
2022/09/04 00:48:37;;;;;;;7.05;2.35;;;;;;;17.27;100.00;100068.16;5011660;28;20528;-65
2022/09/04 00:51:28;;;;;;;9.10;2.50;;;;;;;17.37;100.00;100061.28;5011995;28;20033;-65
2022/09/04 00:54:12;;;;;;;3.97;2.05;;;;;;;17.30;100.00;100065.28;5012406;28;20033;-65
2022/09/04 00:56:44;;;;;;;7.18;2.72;;;;;;;17.24;100.00;100071.03;5012786;28;20048;-65
2022/09/04 00:59:43;;;;;;;4.00;1.92;;;;;;;17.27;100.00;100070.88;5012870;28;20030;-65
2022/09/04 01:02:31;;;;;;;4.80;2.13;;;;;;;17.24;100.00;100073.75;5006310;28;20027;-66
2022/09/04 01:05:28;;;;;;;8.45;2.58;;;;;;;17.31;100.00;100083.19;4993076;28;20760;-66
2022/09/04 01:08:19;;;;;;;9.38;2.85;;;;;;;17.33;100.00;100077.72;4992958;28;20029;-66
2022/09/04 01:10:59;;;;;;;4.22;2.28;;;;;;;17.34;100.00;100079.44;4999650;28;20048;-67
2022/09/04 01:13:59;;;;;;;4.35;2.55;;;;;;;17.34;100.00;100084.81;5012436;28;20073;-66
2022/09/04 01:16:40;;;;;;;7.97;2.38;;;;;;;17.30;100.00;100092.19;4998780;28;20461;-66
2022/09/04 01:19:39;;;;;;;5.03;2.05;;;;;;;17.29;100.00;100094.97;5012339;28;20025;-65
2022/09/04 01:22:25;;;;;;;4.13;1.85;;;;;;;17.26;100.00;100090.66;5012476;28;20060;-65
2022/09/04 01:25:16;;;;;;;6.30;2.60;;;;;;;17.27;100.00;100092.38;5012261;28;20030;-65
2022/09/04 01:27:49;;;;;;;5.07;2.67;;;;;;;17.26;100.00;100096.03;5010584;28;20030;-66
2022/09/04 01:30:18;;;;;;;5.05;2.80;;;;;;;17.27;100.00;100095.06;5020321;28;20144;-66
2022/09/04 01:32:58;;;;;;;4.93;2.63;;;;;;;17.23;100.00;100096.22;5050996;28;20091;-67
2022/09/04 01:35:43;;;;;;;5.38;3.25;;;;;;;17.18;100.00;100101.00;5051502;28;20044;-64
2022/09/04 01:38:32;;;;;;;6.03;2.95;;;;;;;17.23;100.00;100098.03;5033487;28;20029;-64
2022/09/04 01:41:13;;;;;;;5.03;2.58;;;;;;;17.24;100.00;100102.44;5051662;28;20024;-64
2022/09/04 01:43:39;;;;;;;6.78;2.50;;;;;;;17.21;100.00;100103.50;5051464;28;20021;-64
2022/09/04 01:46:42;;;;;;;8.25;3.03;;;;;;;17.20;100.00;100095.53;5051569;28;20392;-64
2022/09/04 01:49:26;;;;;;;5.75;2.92;;;;;;;17.19;100.00;100105.41;5051479;28;20025;-64
2022/09/04 01:52:09;;;;;;;6.60;3.03;;;;;;;17.18;100.00;100110.88;5048316;28;20036;-64
2022/09/04 01:54:44;;;;;;;5.30;2.88;;;;;;;17.14;100.00;100102.09;5051140;28;20107;-66
2022/09/04 01:57:38;;;;;;;5.43;3.25;;;;;;;17.17;100.00;100101.91;5051491;28;20052;-66
2022/09/04 02:00:13;;;;;;;6.22;3.22;;;;;;;17.19;100.00;100094.66;5051262;28;20043;-66
2022/09/04 02:02:53;;;;;;;7.50;3.03;;;;;;;17.21;100.00;100099.94;5029502;28;20033;-66
2022/09/04 02:05:53;;;;;;;5.38;2.65;;;;;;;17.18;100.00;100097.41;5051263;28;20025;-66
2022/09/04 02:08:42;;;;;;;5.82;3.10;;;;;;;17.24;100.00;100097.94;5051023;28;20023;-66
2022/09/04 02:11:16;;;;;;;7.80;3.00;;;;;;;17.25;100.00;100104.19;5051042;28;20029;-65
2022/09/04 02:13:48;;;;;;;6.13;2.80;;;;;;;17.23;100.00;100104.28;5038826;28;20041;-67
2022/09/04 02:16:29;;;;;;;5.97;3.05;;;;;;;17.24;100.00;100107.81;5030272;28;20381;-65
2022/09/04 02:19:23;;;;;;;6.57;2.95;;;;;;;17.23;100.00;100111.47;5030041;28;20469;-66
2022/09/04 02:22:27;;;;;;;5.55;2.83;;;;;;;17.19;100.00;100110.78;5028765;28;20064;-66
2022/09/04 02:25:29;;;;;;;6.05;2.90;;;;;;;17.28;100.00;100120.13;5031293;28;20082;-66
2022/09/04 02:27:57;;;;;;;5.20;2.38;;;;;;;17.18;100.00;100103.69;5036503;28;20068;-66
2022/09/04 02:30:22;;;;;;;4.18;2.28;;;;;;;16.97;100.00;100112.94;5050248;28;20061;-65
2022/09/04 02:33:21;;;;;;;4.30;2.08;;;;;;;16.87;100.00;100122.47;5050449;28;20534;-66
2022/09/04 02:35:49;;;;;;;5.75;2.38;;;;;;;16.81;100.00;100118.34;5050856;28;20035;-66
2022/09/04 02:38:42;;;;;;;6.55;3.13;;;;;;;16.78;100.00;100128.38;5050636;28;20029;-67
2022/09/04 02:41:15;;;;;;;5.60;2.92;;;;;;;16.76;100.00;100119.53;5050674;28;20037;-66
2022/09/04 02:43:56;;;;;;;6.03;2.97;;;;;;;16.75;100.00;100117.81;5050775;28;20033;-65
2022/09/04 02:46:44;;;;;;;6.25;2.70;;;;;;;16.73;100.00;100122.41;5050901;28;20052;-66
2022/09/04 02:49:15;;;;;;;5.28;2.80;;;;;;;16.73;100.00;100122.41;5050691;28;20028;-66
2022/09/04 02:51:44;;;;;;;4.55;2.60;;;;;;;16.74;100.00;100129.50;5050711;28;20056;-64
2022/09/04 02:54:09;;;;;;;5.90;3.17;;;;;;;16.89;100.00;100134.00;5050577;28;20028;-64
2022/09/04 02:56:55;;;;;;;5.07;3.00;;;;;;;16.96;100.00;100135.41;5050241;28;20039;-64
2022/09/04 02:59:54;;;;;;;6.20;3.20;;;;;;;16.96;100.00;100138.09;5050447;28;20037;-64
2022/09/04 03:02:31;;;;;;;6.72;2.83;;;;;;;16.94;100.00;100137.31;5050297;28;20036;-64
2022/09/04 03:05:03;;;;;;;7.85;2.65;;;;;;;16.89;100.00;100134.88;5050162;28;20033;-64
2022/09/04 03:07:39;;;;;;;8.15;2.53;;;;;;;16.71;100.00;100135.91;5050017;28;20079;-64
2022/09/04 03:10:17;;;;;;;5.93;3.50;;;;;;;16.74;100.00;100140.25;5049491;28;20036;-64
2022/09/04 03:12:59;;;;;;;5.82;2.33;;;;;;;16.70;100.00;100136.88;5049501;28;20079;-64
2022/09/04 03:15:34;;;;;;;4.72;2.42;;;;;;;16.68;100.00;100132.53;5049651;28;20024;-64
2022/09/04 03:18:12;;;;;;;6.80;2.67;;;;;;;16.58;100.00;100128.63;5050636;28;20029;-66
2022/09/04 03:20:53;;;;;;;5.20;2.60;;;;;;;16.64;100.00;100149.75;5053583;28;20036;-65
2022/09/04 03:23:18;;;;;;;8.75;3.25;;;;;;;16.62;100.00;100143.63;5034222;28;20110;-65
2022/09/04 03:25:56;;;;;;;7.63;3.10;;;;;;;16.59;100.00;100143.81;5034276;28;20057;-65
2022/09/04 03:29:07;;;;;;;8.93;2.50;;;;;;;16.57;100.00;100145.69;5034141;28;20112;-67
2022/09/04 03:31:54;;;;;;;8.63;2.90;;;;;;;16.49;100.00;100146.09;5031381;28;20053;-66
2022/09/04 03:34:38;;;;;;;6.32;2.60;;;;;;;16.52;100.00;100139.72;5045744;28;20484;-66
2022/09/04 03:37:09;;;;;;;4.20;2.60;;;;;;;16.52;100.00;100148.59;5054248;28;20029;-65
2022/09/04 03:39:59;;;;;;;5.78;2.97;;;;;;;16.51;100.00;100148.69;5054022;28;20050;-66
2022/09/04 03:42:49;;;;;;;5.28;2.55;;;;;;;16.46;100.00;100146.28;5053933;28;20029;-66
2022/09/04 03:45:25;;;;;;;4.95;2.90;;;;;;;16.45;100.00;100146.31;5035797;28;20072;-65
2022/09/04 03:48:31;;;;;;;8.07;2.88;;;;;;;16.46;100.00;100146.28;5053812;28;20421;-66
2022/09/04 03:51:23;;;;;;;7.22;2.85;;;;;;;16.47;100.00;100153.41;5053688;28;20383;-66
2022/09/04 03:54:14;;;;;;;8.35;2.42;;;;;;;16.43;100.00;100150.91;5053937;28;20021;-66
2022/09/04 03:56:55;;;;;;;6.55;2.20;;;;;;;16.38;100.00;100153.84;5053892;28;20032;-66
2022/09/04 03:59:30;;;;;;;8.73;4.28;;;;;;;16.36;100.00;100154.91;5049833;28;20155;-66
2022/09/04 04:02:30;;;;;;;4.63;2.25;;;;;;;16.32;100.00;100156.00;5052540;28;20047;-66
2022/09/04 04:05:35;;;;;;;6.63;3.03;;;;;;;16.30;100.00;100165.94;5052289;28;20017;-67
2022/09/04 04:08:36;;;;;;;6.10;2.50;;;;;;;16.27;100.00;100164.31;5052107;28;20025;-66
2022/09/04 04:11:29;;;;;;;8.40;2.40;;;;;;;16.24;100.00;100171.66;5049471;28;20026;-66
2022/09/04 04:14:20;;;;;;;7.97;2.93;;;;;;;16.31;100.00;100173.06;5046348;28;20110;-66
2022/09/04 04:16:58;;;;;;;7.40;3.13;;;;;;;16.39;100.00;100177.03;5052273;28;20057;-66
2022/09/04 04:20:07;;;;;;;5.22;2.97;;;;;;;16.50;100.00;100184.56;5052651;28;20460;-66
2022/09/04 04:22:48;;;;;;;5.22;2.90;;;;;;;16.47;100.00;100176.69;5006066;28;20040;-66
2022/09/04 04:25:33;;;;;;;5.75;2.80;;;;;;;16.46;100.00;100177.63;5052602;28;20044;-66
2022/09/04 04:28:18;;;;;;;19.23;4.57;;;;;;;16.38;100.00;100186.06;5052606;28;20036;-66
2022/09/04 04:30:52;;;;;;;7.05;3.20;;;;;;;16.36;100.00;100192.47;5051051;28;20059;-66
2022/09/04 04:33:48;;;;;;;7.57;2.67;;;;;;;16.35;100.00;100190.72;5053156;28;20033;-65
2022/09/04 04:36:23;;;;;;;5.45;3.17;;;;;;;16.32;100.00;100198.94;5052924;28;20033;-66
2022/09/04 04:39:04;;;;;;;6.25;3.55;;;;;;;16.31;100.00;100199.91;5052870;28;20029;-66
2022/09/04 04:47:39;;;;;;;4.88;2.83;;;;;;;16.24;100.00;100219.97;5052236;28;20147;-66
2022/09/04 04:50:41;;;;;;;6.15;2.92;;;;;;;16.22;100.00;100213.78;5051923;28;20040;-66
2022/09/04 04:53:28;;;;;;;6.00;2.90;;;;;;;16.20;100.00;100221.06;5034154;28;20407;-66
2022/09/04 04:56:13;;;;;;;9.00;3.10;;;;;;;16.21;100.00;100226.34;5051776;28;20108;-66
2022/09/04 04:58:47;;;;;;;5.50;2.70;;;;;;;16.23;100.00;100228.94;5052221;28;20452;-66
2022/09/04 05:01:15;;;;;;;5.10;2.85;;;;;;;16.34;100.00;100226.59;5052091;28;20240;-66
2022/09/04 05:04:06;;;;;;;7.88;3.33;;;;;;;16.39;100.00;100224.53;5052452;28;20388;-66
2022/09/04 05:07:09;;;;;;;5.22;2.80;;;;;;;16.40;100.00;100237.00;5052280;28;20098;-66
2022/09/04 05:09:45;;;;;;;4.40;2.20;;;;;;;16.36;100.00;100238.13;5052290;28;20032;-66
2022/09/04 05:12:16;;;;;;;9.65;2.70;;;;;;;16.29;100.00;100245.59;5051665;28;20447;-66
2022/09/04 05:14:56;;;;;;;4.68;2.13;;;;;;;16.28;100.00;100253.72;5032087;28;20040;-66
2022/09/04 05:17:27;;;;;;;8.68;2.88;;;;;;;16.29;100.00;100252.81;5032261;28;20033;-66
2022/09/04 05:20:17;;;;;;;8.02;3.15;;;;;;;16.28;100.00;100245.69;5032157;28;20021;-66
2022/09/04 05:22:51;;;;;;;8.50;2.85;;;;;;;16.40;100.00;100258.47;5047757;28;20025;-66
2022/09/04 05:25:44;;;;;;;6.85;3.30;;;;;;;16.34;100.00;100253.44;5051397;28;20029;-66
2022/09/04 05:28:36;;;;;;;10.90;2.75;;;;;;;16.37;100.00;100258.63;5051607;28;20016;-66
2022/09/04 05:31:13;;;;;;;7.60;2.85;;;;;;;16.39;100.00;100262.97;5027364;28;20407;-66
2022/09/04 05:33:57;;;;;;;5.75;2.83;;;;;;;16.47;100.00;100265.28;5051307;28;20392;-66
2022/09/04 05:36:50;;;;;;;5.95;2.97;;;;;;;16.56;100.00;100270.16;5051320;28;20021;-66
2022/09/04 05:39:29;;;;;;;5.90;2.43;;;;;;;16.63;100.00;100276.97;5051450;28;20175;-66
2022/09/04 05:42:11;;;;;;;5.15;2.70;;;;;;;16.69;100.00;100280.19;5031513;28;20037;-66
2022/09/04 05:45:07;;;;;;;5.90;3.20;;;;;;;16.76;100.00;100289.66;5031735;28;20105;-66
2022/09/04 05:47:57;;;;;;;5.70;2.90;;;;;;;16.89;100.00;100288.06;5031630;28;20028;-66
2022/09/04 05:50:55;;;;;;;6.80;3.42;;;;;;;17.01;100.00;100292.78;5043864;28;20036;-66
2022/09/04 05:53:27;;;;;;;4.07;2.80;;;;;;;17.16;100.00;100288.38;5031476;28;20045;-66
2022/09/04 05:55:52;;;;;;;6.43;3.35;;;;;;;17.41;100.00;100278.00;5050435;28;20040;-67
2022/09/04 05:58:53;;;;;;;6.05;3.33;;;;;;;17.81;100.00;100285.53;5050075;28;20472;-66
2022/09/04 06:01:22;;;;;;;8.55;3.53;;;;;;;18.04;100.00;100287.75;5050555;28;20032;-66
2022/09/04 06:04:14;;;;;;;5.55;3.13;;;;;;;18.15;100.00;100288.00;5050402;28;20025;-67
2022/09/04 06:07:12;;;;;;;6.63;3.63;;;;;;;18.32;100.00;100289.69;5049990;28;20043;-67
2022/09/04 06:09:56;;;;;;;6.25;3.28;;;;;;;18.48;100.00;100293.25;5051039;28;20025;-67
2022/09/04 06:12:40;;;;;;;5.88;3.22;;;;;;;18.75;100.00;100301.44;5032367;28;20092;-67
2022/09/04 06:15:36;;;;;;;5.88;2.90;;;;;;;18.96;100.00;100301.00;5050845;28;20053;-67
2022/09/04 06:18:30;;;;;;;6.35;3.17;;;;;;;19.26;100.00;100298.19;5051059;28;20088;-67
2022/09/04 06:20:58;;;;;;;7.22;3.17;;;;;;;20.75;100.00;100307.09;5051106;28;20032;-67
2022/09/04 06:24:06;;;;;;;5.53;3.03;;;;;;;22.68;90.77;100304.44;5050725;28;20025;-67
2022/09/04 06:26:51;;;;;;;5.22;3.20;;;;;;;24.46;81.51;100315.06;5050906;28;20055;-67
2022/09/04 06:29:20;;;;;;;4.45;2.65;;;;;;;26.02;71.90;100314.84;5050895;28;20051;-67
2022/09/04 06:32:05;;;;;;;4.72;2.40;;;;;;;27.56;62.41;100318.19;5048926;28;20136;-67
2022/09/04 06:35:03;;;;;;;4.93;2.65;;;;;;;27.36;59.03;100326.63;5051085;28;20243;-66
2022/09/04 06:37:50;;;;;;;3.63;2.20;;;;;;;26.04;62.11;100323.75;5050866;28;20480;-66
2022/09/04 06:40:21;;;;;;;5.40;2.60;;;;;;;24.76;67.53;100327.09;5050753;28;20036;-66
2022/09/04 06:42:46;;;;;;;7.60;3.10;;;;;;;24.26;71.16;100331.38;5050768;28;20040;-66
2022/09/04 06:45:18;;;;;;;4.32;2.85;;;;;;;24.25;74.55;100332.38;5050537;28;20025;-66
2022/09/04 06:48:02;;;;;;;4.95;2.70;;;;;;;23.84;74.60;100332.19;5050569;28;20085;-66
2022/09/04 06:50:54;;;;;;;5.55;2.83;;;;;;;23.34;76.31;100328.13;5050532;28;20047;-67
2022/09/04 06:53:38;;;;;;;4.53;2.50;;;;;;;22.98;81.08;100337.28;5052511;28;20045;-66
2022/09/04 06:56:48;;;;;;;4.35;2.20;;;;;;;23.00;81.38;100334.44;5054373;28;20033;-67
2022/09/04 06:59:39;;;;;;;5.88;3.45;;;;;;;23.42;81.51;100312.09;5038987;28;20045;-66
2022/09/04 07:02:27;;;;;;;5.28;2.13;;;;;;;24.36;77.79;100343.19;5054188;28;20365;-66
2022/09/04 07:05:11;;;;;;;4.65;2.60;;;;;;;25.41;71.94;100347.59;5053548;28;20107;-65
2022/09/04 07:07:36;;;;;;;;;;;;;;;26.13;67.56;100339.28;5054398;28;20025;-66
2022/09/04 07:10:39;;;;;;;6.23;2.63;;;;;;;26.77;64.22;100346.00;5054521;28;20401;-66
2022/09/04 07:13:22;;;;;;;4.05;2.35;;;;;;;27.19;62.40;100345.50;5041501;28;20291;-66
2022/09/04 07:16:04;;;;;;;;;;;;;;;27.34;60.12;100350.50;5054769;28;20025;-66
2022/09/04 07:19:02;;;;;;;5.60;2.42;;;;;;;27.00;61.90;100347.41;5034294;28;20044;-66
2022/09/04 07:22:00;;;;;;;5.18;2.17;;;;;;;27.14;61.48;100349.66;5038282;28;20395;-66
2022/09/04 07:25:04;;;;;;;4.80;2.38;;;;;;;26.98;61.80;100358.47;5053066;28;20560;-65
2022/09/04 07:28:00;;;;;;;3.42;2.15;;;;;;;26.95;62.76;100356.00;4991476;28;20461;-65
2022/09/04 07:30:33;;;;;;;3.50;2.28;;;;;;;27.09;61.78;100357.44;4990517;28;20054;-65
2022/09/04 07:33:03;;;;;;;;;;;;;;;27.05;62.26;100361.47;5028161;28;20198;-66
2022/09/04 07:35:47;;;;;;;3.85;2.33;;;;;;;27.26;63.12;100356.69;5053844;28;19919;-65
2022/09/04 07:38:13;;;;;;;4.00;2.33;;;;;;;27.72;61.90;100362.19;5054038;28;20051;-65
2022/09/04 07:40:44;;;;;;;4.90;2.17;;;;;;;27.86;59.93;100358.94;5053986;28;20024;-66
2022/09/04 07:43:54;;;;;;;3.30;1.60;;;;;;;27.67;59.29;100369.97;5053796;28;20144;-65
2022/09/04 07:46:29;;;;;;;4.55;2.47;;;;;;;27.38;60.16;100369.19;5054047;28;20029;-65
2022/09/04 07:49:08;;;;;;;3.35;2.00;;;;;;;27.29;61.01;100371.94;5052463;28;20150;-65
2022/09/04 07:51:47;;;;;;;5.93;2.08;;;;;;;27.62;60.76;100377.75;5053328;28;20032;-64
2022/09/04 07:54:51;;;;;;;3.42;1.85;;;;;;;27.72;59.31;100373.13;5053563;28;20021;-65
2022/09/04 07:57:25;;;;;;;3.17;1.83;;;;;;;27.85;59.71;100379.09;5040165;28;20522;-65
2022/09/04 08:00:16;;;;;;;4.50;2.70;;;;;;;28.11;60.38;100371.94;5051921;28;20512;-66
2022/09/04 08:03:03;;;;;;;4.13;1.67;;;;;;;28.66;58.01;100385.56;5048959;28;20037;-65
2022/09/04 08:05:58;;;;;;;6.07;1.85;;;;;;;28.84;57.20;100383.69;5052878;28;20714;-65
2022/09/04 08:09:08;;;;;;;2.20;1.60;;;;;;;28.82;56.35;100388.47;5052133;28;20021;-65
2022/09/04 08:12:03;;;;;;;3.97;1.85;;;;;;;28.96;55.97;100393.41;5051998;28;20175;-65
2022/09/04 08:15:23;;;;;;;3.92;1.80;;;;;;;29.16;56.29;100394.97;5051267;28;20043;-65
2022/09/04 08:18:23;;;;;;;3.80;1.92;;;;;;;29.20;55.90;100390.88;5014368;28;20041;-66
2022/09/04 08:21:14;;;;;;;2.90;1.60;;;;;;;29.33;55.45;100391.31;5049908;28;20055;-65
2022/09/04 08:23:49;;;;;;;4.30;1.98;;;;;;;29.76;53.85;100396.78;5051141;28;20404;-65
2022/09/04 08:26:26;;;;;;;5.28;1.60;;;;;;;29.83;52.10;100392.38;5050183;28;20027;-65
2022/09/04 08:29:01;;;;;;;3.85;1.55;;;;;;;29.96;52.43;100398.28;5051187;28;20695;-66
2022/09/04 08:32:01;;;;;;;5.80;1.60;;;;;;;30.03;52.73;100403.97;5045976;28;20044;-65
2022/09/04 08:34:41;;;;;;;3.35;1.70;;;;;;;30.16;53.39;100399.75;5052333;28;20025;-65
2022/09/04 08:37:22;;;;;;;3.38;2.03;;;;;;;30.62;50.83;100401.13;5051779;28;20603;-66
2022/09/04 08:40:12;;;;;;;3.65;1.60;;;;;;;30.92;49.97;100399.66;5051183;28;20086;-65
2022/09/04 08:43:23;;;;;;;8.25;2.13;;;;;;;30.86;49.12;100396.56;5051900;28;20029;-65
2022/09/04 08:46:31;;;;;;;2.70;1.55;;;;;;;30.89;50.92;100401.69;5050238;28;20045;-66
2022/09/04 08:49:34;;;;;;;2.85;1.50;;;;;;;31.07;49.30;100401.53;5051107;28;20032;-66
2022/09/04 08:52:23;;;;;;;2.65;1.30;;;;;;;31.05;47.25;100408.25;5050198;28;20044;-66
2022/09/04 08:55:04;;;;;;;3.42;1.60;;;;;;;31.10;49.27;100409.47;5050711;28;20035;-66
2022/09/04 08:58:08;;;;;;;5.28;1.30;;;;;;;31.42;47.72;100419.59;5050620;28;20029;-65
2022/09/04 09:01:02;;;;;;;3.92;1.52;;;;;;;31.52;48.67;100409.28;5010261;28;20120;-66
2022/09/04 09:03:30;;;;;;;2.10;1.20;;;;;;;31.54;47.80;100412.72;5052081;28;20395;-65
2022/09/04 09:06:14;;;;;;;2.05;1.35;;;;;;;31.55;45.99;100419.94;5052440;28;20035;-65
2022/09/04 09:09:18;;;;;;;1.83;1.10;;;;;;;31.78;46.12;100412.69;5051054;28;20039;-66
2022/09/04 09:12:22;;;;;;;1.85;1.15;;;;;;;32.03;46.33;100414.34;4992605;28;20037;-66
2022/09/04 09:15:06;;;;;;;;;;;;;;;31.98;44.44;100416.75;5048823;28;20061;-66
2022/09/04 09:17:38;;;;;;;2.95;1.25;;;;;;;32.25;45.78;100418.22;5039565;28;19916;-66
2022/09/04 09:20:21;;;;;;;5.78;1.60;;;;;;;32.45;44.86;100409.38;5040351;28;20051;-66
2022/09/04 09:23:16;;;;;;;5.63;1.15;;;;;;;32.65;44.83;100407.91;5046195;28;20439;-66
2022/09/04 09:26:05;;;;;;;2.58;1.20;;;;;;;32.71;44.53;100407.16;5047178;28;20025;-66
2022/09/04 09:28:53;;;;;;;2.33;1.15;;;;;;;32.68;43.66;100407.53;5049835;28;20024;-65
2022/09/04 09:31:25;;;;;;;5.70;1.55;;;;;;;32.67;45.89;100408.53;5044664;28;20771;-66
2022/09/04 09:34:12;;;;;;;2.35;1.15;;;;;;;33.05;43.58;100395.72;5041026;28;20430;-66
2022/09/04 09:37:01;;;;;;;3.50;0.93;;;;;;;32.59;42.65;100399.47;5033096;28;20032;-66
2022/09/04 09:39:54;;;;;;;2.55;1.15;;;;;;;32.68;43.17;100402.03;5048120;28;20108;-65
2022/09/04 09:42:53;;;;;;;2.80;1.15;;;;;;;33.08;42.78;100401.75;5049084;28;20052;-66
2022/09/04 09:45:30;;;;;;;1.45;0.70;;;;;;;33.48;42.30;100397.78;5049161;28;20043;-66
2022/09/04 09:48:02;;;;;;;2.30;1.08;;;;;;;33.86;40.27;100402.22;5049258;28;20036;-66
2022/09/04 09:51:12;;;;;;;2.83;1.10;;;;;;;34.02;41.46;100396.53;5048428;28;20032;-67
2022/09/04 09:53:43;;;;;;;2.58;0.80;;;;;;;33.80;40.80;100399.38;5026485;28;20117;-66
2022/09/04 09:56:14;;;;;;;3.20;1.90;;;;;;;33.68;41.01;100390.69;5048392;28;20062;-67
2022/09/04 09:59:01;;;;;;;3.33;0.90;;;;;;;33.44;42.08;100390.94;5049013;28;20509;-66
2022/09/04 10:01:29;;;;;;;1.20;0.80;;;;;;;33.72;41.84;100393.94;5049303;28;20083;-66
2022/09/04 10:04:37;;;;;;;1.48;0.80;;;;;;;34.25;41.26;100386.22;5049514;28;20059;-66
2022/09/04 10:07:35;;;;;;;1.98;0.80;;;;;;;34.40;41.31;100384.34;5048047;28;20024;-66
2022/09/04 10:10:36;;;;;;;2.40;0.90;;;;;;;33.99;38.93;100387.78;4960896;28;20060;-66
2022/09/04 10:13:26;;;;;;;2.58;1.48;;;;;;;34.21;38.80;100373.00;5045196;28;20041;-66
2022/09/04 10:16:03;;;;;;;1.80;0.80;;;;;;;34.13;39.01;100376.75;5049191;28;20031;-66
2022/09/04 10:18:40;;;;;;;2.10;0.70;;;;;;;34.16;38.49;100383.78;5049113;28;20047;-66
2022/09/04 10:21:37;;;;;;;2.85;0.93;;;;;;;34.17;39.09;100375.28;5048438;28;20544;-66
2022/09/04 10:24:48;;;;;;;0.98;0.63;;;;;;;34.01;39.52;100377.41;5049535;28;20118;-66
2022/09/04 10:27:34;;;;;;;3.53;1.38;;;;;;;34.32;37.72;100369.75;5048072;28;20036;-66
2022/09/04 10:30:23;;;;;;;2.55;0.98;;;;;;;34.74;39.20;100369.84;5046915;28;20029;-67
2022/09/04 10:33:10;;;;;;;2.15;0.75;;;;;;;34.72;38.73;100369.19;5047554;28;20037;-66
2022/09/04 10:35:55;;;;;;;1.67;0.73;;;;;;;34.71;37.57;100375.78;5047422;28;20079;-66
2022/09/04 10:41:57;;;;;;;3.55;1.60;;;;;;;34.29;38.69;100378.41;5047959;28;20067;-66
2022/09/04 10:44:40;;;;;;;1.92;0.98;;;;;;;34.53;36.13;100370.66;5045848;28;20402;-66
2022/09/04 10:47:43;;;;;;;1.25;0.73;;;;;;;34.37;36.72;100368.13;5036659;28;20108;-66
2022/09/04 10:50:29;;;;;;;1.10;0.68;;;;;;;34.16;37.03;100369.97;5046647;28;20021;-66
2022/09/04 10:52:59;;;;;;;2.05;0.68;;;;;;;34.25;37.90;100369.66;5041339;28;20021;-65
2022/09/04 10:55:35;;;;;;;1.33;0.60;;;;;;;34.37;37.50;100372.78;5047204;28;20123;-66
2022/09/04 10:58:26;;;;;;;1.20;0.70;;;;;;;34.77;34.92;100374.97;5046493;28;20039;-66
2022/09/04 11:01:04;;;;;;;1.52;0.80;;;;;;;35.00;34.52;100372.91;5032277;28;20051;-66
2022/09/04 11:03:43;;;;;;;1.08;0.70;;;;;;;35.10;33.98;100373.44;5032817;28;20084;-66
2022/09/04 11:06:39;;;;;;;1.50;0.90;;;;;;;35.14;34.11;100371.97;5030870;28;20029;-66
2022/09/04 11:09:38;;;;;;;1.42;0.68;;;;;;;35.19;33.40;100363.94;5028926;28;20413;-66
2022/09/04 11:12:21;;;;;;;0.60;0.40;;;;;;;35.54;33.84;100362.13;5046386;28;20053;-65
2022/09/04 11:15:23;;;;;;;4.38;0.80;;;;;;;35.68;32.36;100358.41;5033587;28;20040;-66
2022/09/04 11:18:00;;;;;;;1.05;0.60;;;;;;;35.82;33.70;100356.56;5048438;28;20029;-66
2022/09/04 11:20:44;;;;;;;1.88;0.75;;;;;;;35.47;32.93;100362.06;5047140;28;20087;-66
2022/09/04 11:23:30;;;;;;;2.47;0.70;;;;;;;35.53;35.37;100357.66;5048665;28;20017;-65
2022/09/04 11:26:17;;;;;;;1.50;0.93;;;;;;;35.76;34.88;100356.34;5048512;28;20028;-65
2022/09/04 11:29:01;;;;;;;2.33;0.70;;;;;;;36.00;33.63;100359.69;5036933;28;20115;-66
2022/09/04 11:31:49;;;;;;;1.65;0.77;;;;;;;35.32;33.95;100350.19;5048181;28;20080;-64
2022/09/04 11:34:59;;;;;;;2.42;0.70;;;;;;;35.00;34.02;100347.16;5047691;28;20029;-64
2022/09/04 11:37:57;;;;;;;2.13;0.77;;;;;;;35.29;34.93;100344.25;5046948;28;20472;-65
2022/09/04 11:40:56;;;;;;;1.17;0.60;;;;;;;35.83;35.48;100351.66;5050288;28;20021;-65
2022/09/04 11:43:30;;;;;;;1.20;0.60;;;;;;;36.06;34.69;100350.56;5050888;28;20039;-65
2022/09/04 11:46:34;;;;;;;1.30;0.63;;;;;;;35.02;36.83;100343.16;5051285;28;20033;-65
2022/09/04 11:49:21;;;;;;;1.27;0.73;;;;;;;34.14;33.91;100356.34;5051539;28;20035;-64
2022/09/04 11:51:52;;;;;;;1.33;0.52;;;;;;;34.09;35.63;100352.44;5051181;28;20032;-64
2022/09/04 11:54:55;;;;;;;3.67;0.80;;;;;;;34.60;34.72;100356.94;5047631;28;20052;-65
2022/09/04 11:57:36;;;;;;;0.80;0.50;;;;;;;35.27;32.88;100352.72;5038809;28;20021;-65
2022/09/04 12:00:12;;;;;;;2.03;0.80;;;;;;;35.38;32.20;100349.47;5049789;28;20451;-65
2022/09/04 12:02:38;;;;;;;2.65;0.77;;;;;;;34.58;32.03;100348.00;5050317;28;20025;-65
2022/09/04 12:05:12;;;;;;;2.25;0.68;;;;;;;34.98;33.62;100346.50;5051405;28;20051;-65
2022/09/04 12:08:12;;;;;;;3.42;1.40;;;;;;;35.59;33.43;100349.38;5051232;28;20033;-65
2022/09/04 12:10:52;;;;;;;2.33;0.82;;;;;;;35.57;32.69;100351.50;5049877;28;20147;-65
2022/09/04 12:13:36;;;;;;;1.40;0.88;;;;;;;35.73;34.47;100350.34;5044190;28;20049;-65
2022/09/04 12:16:07;;;;;;;3.65;0.77;;;;;;;36.09;33.28;100352.91;5051652;28;20383;-65
2022/09/04 12:18:53;;;;;;;1.45;0.90;;;;;;;36.28;31.96;100354.94;5050733;28;20027;-65
2022/09/04 12:21:24;;;;;;;2.22;0.57;;;;;;;36.15;30.66;100354.84;5048913;28;20013;-66
2022/09/04 12:24:25;;;;;;;1.05;0.68;;;;;;;36.46;29.83;100352.47;5051432;28;20025;-65
2022/09/04 12:27:03;;;;;;;1.40;0.50;;;;;;;36.62;28.50;100360.41;5028134;28;20257;-65
2022/09/04 12:29:34;;;;;;;1.90;0.43;;;;;;;36.42;29.92;100354.78;5050132;28;20029;-65
2022/09/04 12:32:32;;;;;;;1.63;0.70;;;;;;;36.19;29.53;100354.25;5049184;28;20045;-65
2022/09/04 12:35:29;;;;;;;1.20;0.52;;;;;;;35.63;30.96;100355.38;5051450;28;20738;-65
2022/09/04 12:38:03;;;;;;;1.55;0.63;;;;;;;35.56;32.13;100357.25;5050603;28;20024;-65
2022/09/04 12:40:40;;;;;;;1.65;0.60;;;;;;;35.60;33.27;100358.56;5042316;28;20483;-65
2022/09/04 12:43:23;;;;;;;1.67;0.57;;;;;;;35.68;31.10;100363.94;5050335;28;20017;-65
2022/09/04 12:46:05;;;;;;;1.55;0.75;;;;;;;36.00;30.73;100354.16;5050129;28;20504;-65
2022/09/04 12:49:00;;;;;;;2.43;0.50;;;;;;;35.82;31.99;100364.88;5034231;28;20029;-65
2022/09/04 12:51:35;;;;;;;1.17;0.55;;;;;;;35.65;32.19;100359.63;5026098;28;20124;-65
2022/09/04 12:54:33;;;;;;;2.13;0.70;;;;;;;35.65;29.43;100358.81;5048856;28;20498;-65
2022/09/04 12:57:10;;;;;;;2.22;0.68;;;;;;;35.08;28.22;100361.72;5049107;28;20025;-64